TTPP

Piarco International Airport

Airport
ICAO code
TTPP
IATA Code
POS
Summary
ICAO Region
CARSAM
ICAO Territory
Location

Piarco, Trinidad

Serving
Port of Spain
Elevation
58 ft
Coordinates
10° 35' 52" N , 61° 20' 22" W
KCC
Metar
Observation
TTPP 241500Z 16007KT 9999 VCSH FEW012CB SCT020 30/24 Q1012 NOSIG RMK CB...SSE SSW JP...ALL QUADS XCPT NE
Station
Piarco International Airport, Trinidad
Date/Time
2022-09-24 15:00:00
Wind direction
160°
Wind speed
07 kts
Lowest cloud amount
few clouds
Temperature
30°C
Dew point
24°C
Humidity
70%
QNH
1012 hPa
Weather condition
in vicinity: showers

Piarco International Airport, is an international airport serving the island of Trinidad. The airport is located 30 km east of Port of Spain.

Climatology

Tropical savannah climate (Köppen climate classification Aw)

Runways

Designator Length Width Surface Rops
10/28 3200 46 ASP Yes/Yes

Airport map

Aerial View

SKYbrary Partners:

Safety knowledge contributed by: